createdAt,value
2018-06-29T00:00:07.966Z,17.47
2018-06-29T00:02:36.209Z,17.39
2018-06-29T00:05:04.714Z,17.34
2018-06-29T00:07:32.946Z,17.54
2018-06-29T00:10:01.227Z,17.55
2018-06-29T00:12:29.506Z,17.54
2018-06-29T00:14:57.781Z,17.58
2018-06-29T00:17:26.029Z,17.52
2018-06-29T00:19:54.318Z,17.73
2018-06-29T00:22:22.617Z,17.78
2018-06-29T00:24:50.890Z,17.87
2018-06-29T00:27:19.118Z,17.92
2018-06-29T00:29:47.672Z,17.92
2018-06-29T00:32:15.911Z,17.93
2018-06-29T00:34:44.211Z,17.96
2018-06-29T00:37:12.619Z,18.00
2018-06-29T00:39:40.890Z,17.88
2018-06-29T00:42:09.186Z,17.82
2018-06-29T00:44:37.480Z,17.74
2018-06-29T00:47:05.807Z,17.88
2018-06-29T00:49:34.119Z,18.05
2018-06-29T00:52:02.367Z,17.94
2018-06-29T00:54:30.815Z,17.86
2018-06-29T00:56:59.053Z,17.76
2018-06-29T00:59:27.335Z,17.62
2018-06-29T01:01:55.635Z,17.59
2018-06-29T01:04:23.930Z,17.61
2018-06-29T01:06:52.158Z,17.58
2018-06-29T01:09:20.454Z,17.57
2018-06-29T01:11:48.686Z,17.59
2018-06-29T01:14:16.986Z,17.65
2018-06-29T01:16:45.302Z,17.72
2018-06-29T01:19:13.587Z,17.75
2018-06-29T01:21:41.829Z,17.74
2018-06-29T01:24:10.102Z,17.79
2018-06-29T01:26:38.374Z,17.82
2018-06-29T01:29:06.663Z,17.83
2018-06-29T01:31:35.195Z,17.87
2018-06-29T01:34:03.451Z,17.93
2018-06-29T01:36:31.760Z,17.92
2018-06-29T01:39:00.082Z,17.92
2018-06-29T01:41:28.386Z,17.91
2018-06-29T01:43:56.627Z,17.83
2018-06-29T01:46:24.904Z,17.74
2018-06-29T01:48:53.147Z,17.65
2018-06-29T01:51:21.435Z,17.54
2018-06-29T01:53:49.682Z,17.49
2018-06-29T01:56:17.972Z,17.57
2018-06-29T01:58:46.231Z,17.57
2018-06-29T02:01:14.506Z,17.47
2018-06-29T02:03:42.738Z,17.32
2018-06-29T02:06:11.034Z,17.42
2018-06-29T02:08:39.303Z,17.39
2018-06-29T02:11:07.820Z,17.36
2018-06-29T02:13:36.062Z,17.40
2018-06-29T02:16:04.347Z,17.44
2018-06-29T02:18:32.784Z,17.73
2018-06-29T02:21:01.034Z,17.78
2018-06-29T02:23:29.308Z,17.74
2018-06-29T02:25:57.647Z,17.74
2018-06-29T02:28:25.946Z,17.54
2018-06-29T02:30:54.371Z,17.50
2018-06-29T02:33:22.549Z,17.61
2018-06-29T02:35:50.894Z,17.46
2018-06-29T02:38:19.137Z,17.48
2018-06-29T02:40:47.434Z,17.36
2018-06-29T02:43:15.686Z,17.38
2018-06-29T02:45:44.082Z,17.17
2018-06-29T02:48:12.336Z,17.17
2018-06-29T02:50:40.654Z,17.00
2018-06-29T02:53:08.884Z,17.07
2018-06-29T02:55:37.171Z,16.91
2018-06-29T02:58:05.455Z,16.81
2018-06-29T03:00:33.763Z,16.86
2018-06-29T03:03:02.007Z,16.70
2018-06-29T03:05:30.298Z,16.35
2018-06-29T03:07:58.607Z,16.39
2018-06-29T03:10:26.875Z,16.45
2018-06-29T03:12:55.158Z,16.36
2018-06-29T03:15:23.395Z,16.36
2018-06-29T03:17:51.703Z,16.29
2018-06-29T03:20:20.373Z,16.06
2018-06-29T03:22:48.681Z,16.35
2018-06-29T03:25:17.027Z,16.29
2018-06-29T03:27:45.241Z,16.22
2018-06-29T03:30:13.525Z,16.22
2018-06-29T03:32:41.861Z,16.17
2018-06-29T03:35:10.115Z,16.16
2018-06-29T03:37:38.398Z,16.32
2018-06-29T03:40:06.657Z,16.19
2018-06-29T03:42:34.966Z,16.24
2018-06-29T03:45:03.235Z,16.18
2018-06-29T03:47:31.523Z,16.28
2018-06-29T03:49:59.773Z,16.18
2018-06-29T03:52:28.077Z,16.29
2018-06-29T03:54:56.354Z,16.15
2018-06-29T03:57:24.665Z,16.29
2018-06-29T03:59:52.921Z,16.28
2018-06-29T04:02:21.434Z,16.30
2018-06-29T04:04:49.687Z,16.33
2018-06-29T04:07:17.999Z,16.56
2018-06-29T04:09:46.285Z,16.49
2018-06-29T04:12:14.573Z,16.52
2018-06-29T04:14:42.817Z,16.59
2018-06-29T04:17:11.154Z,16.58
2018-06-29T04:19:39.414Z,16.68
2018-06-29T04:22:07.950Z,16.79
2018-06-29T04:24:36.221Z,16.83
2018-06-29T04:27:04.510Z,16.86
2018-06-29T04:29:32.789Z,16.91
2018-06-29T04:32:01.087Z,17.01
2018-06-29T04:34:29.327Z,16.97
2018-06-29T04:36:57.838Z,17.20
2018-06-29T04:39:26.123Z,17.22
2018-06-29T04:41:54.380Z,17.30
2018-06-29T04:44:22.655Z,17.32
2018-06-29T04:46:50.910Z,17.45
2018-06-29T04:49:19.216Z,17.39
2018-06-29T04:51:47.437Z,17.52
2018-06-29T04:54:15.738Z,17.65
2018-06-29T04:56:44.056Z,17.56
2018-06-29T04:59:12.397Z,17.63
2018-06-29T05:01:40.692Z,17.64
2018-06-29T05:04:09.029Z,17.69
2018-06-29T05:06:38.315Z,17.63
2018-06-29T05:09:07.511Z,17.58
2018-06-29T05:11:36.336Z,17.60
2018-06-29T05:14:04.650Z,17.54
2018-06-29T05:16:32.913Z,17.50
2018-06-29T05:19:01.262Z,17.62
2018-06-29T05:21:29.498Z,17.55
2018-06-29T05:23:57.794Z,17.70
2018-06-29T05:26:26.036Z,17.72
2018-06-29T05:28:54.622Z,17.83
2018-06-29T05:31:22.950Z,17.82
2018-06-29T05:33:51.255Z,17.91
2018-06-29T05:36:19.514Z,17.93
2018-06-29T05:38:47.803Z,17.90
2018-06-29T05:41:16.115Z,17.91
2018-06-29T05:43:44.434Z,18.03
2018-06-29T05:46:12.696Z,18.05
2018-06-29T05:48:41.123Z,18.18
2018-06-29T05:51:09.366Z,18.17
2018-06-29T05:53:37.633Z,18.10
2018-06-29T05:56:05.926Z,18.20
2018-06-29T05:58:34.275Z,18.27
2018-06-29T06:01:02.575Z,18.36
2018-06-29T06:03:30.924Z,18.51
2018-06-29T06:05:59.192Z,18.61
2018-06-29T06:08:27.488Z,18.70
2018-06-29T06:10:55.724Z,18.81
2018-06-29T06:13:24.309Z,18.89
2018-06-29T06:15:52.535Z,18.94
2018-06-29T06:18:20.810Z,19.06
2018-06-29T06:20:49.034Z,19.04
2018-06-29T06:23:18.893Z,18.95
2018-06-29T06:25:47.519Z,19.02
2018-06-29T06:28:15.994Z,19.07
2018-06-29T06:30:44.315Z,19.01
2018-06-29T06:33:12.749Z,19.10
2018-06-29T06:35:40.981Z,19.26
2018-06-29T06:38:09.222Z,19.17
2018-06-29T06:40:37.514Z,19.23
2018-06-29T06:43:06.106Z,19.33
2018-06-29T06:45:34.423Z,19.28
2018-06-29T06:48:02.769Z,19.41
2018-06-29T06:50:31.116Z,19.28
2018-06-29T06:52:59.370Z,19.40
2018-06-29T06:55:27.671Z,19.61
2018-06-29T06:57:55.919Z,19.72
2018-06-29T07:00:24.199Z,19.85
2018-06-29T07:02:52.499Z,19.70
2018-06-29T07:05:21.334Z,19.80
2018-06-29T07:07:49.577Z,19.86
2018-06-29T07:10:17.862Z,20.04
2018-06-29T07:12:46.128Z,20.12
2018-06-29T07:15:14.410Z,20.22
2018-06-29T07:17:42.704Z,20.34
2018-06-29T07:20:11.104Z,20.41
2018-06-29T07:22:39.366Z,20.46
2018-06-29T07:25:07.674Z,20.72
2018-06-29T07:27:36.001Z,20.71
2018-06-29T07:30:05.675Z,20.76
2018-06-29T07:32:34.011Z,20.77
2018-06-29T07:35:02.335Z,21.03
2018-06-29T07:37:30.706Z,20.85
2018-06-29T07:39:58.978Z,20.95
2018-06-29T07:42:27.276Z,21.10
2018-06-29T07:44:55.546Z,21.09
2018-06-29T07:47:23.773Z,21.15
2018-06-29T07:49:52.068Z,21.02
2018-06-29T07:52:20.315Z,21.31
2018-06-29T07:54:48.666Z,21.26
2018-06-29T07:57:16.919Z,21.37
2018-06-29T07:59:45.191Z,21.40
2018-06-29T08:02:13.421Z,21.48
2018-06-29T08:04:41.707Z,21.71
2018-06-29T08:07:10.222Z,21.38
2018-06-29T08:09:38.503Z,21.40
2018-06-29T08:12:06.740Z,21.46
2018-06-29T08:14:34.990Z,21.50
2018-06-29T08:17:03.363Z,21.68
2018-06-29T08:19:31.742Z,21.95
2018-06-29T08:22:00.170Z,21.75
2018-06-29T08:24:29.686Z,21.80
2018-06-29T08:26:57.991Z,22.01
2018-06-29T08:29:26.335Z,21.98
2018-06-29T08:31:54.703Z,22.12
2018-06-29T08:34:22.955Z,22.16
2018-06-29T08:36:51.282Z,22.27
2018-06-29T08:39:19.532Z,22.30
2018-06-29T08:41:47.855Z,22.35
2018-06-29T08:44:16.263Z,22.45
2018-06-29T08:46:44.725Z,22.32
2018-06-29T08:49:12.974Z,22.58
2018-06-29T08:51:41.311Z,22.61
2018-06-29T08:54:09.668Z,22.83
2018-06-29T08:56:38.199Z,22.74
2018-06-29T08:59:06.698Z,22.84
2018-06-29T09:01:35.050Z,22.84
2018-06-29T09:04:03.326Z,23.02
2018-06-29T09:06:32.438Z,22.96
2018-06-29T09:09:00.976Z,22.87
2018-06-29T09:11:29.309Z,23.05
2018-06-29T09:13:57.589Z,22.97
2018-06-29T09:16:25.943Z,23.24
2018-06-29T09:18:54.187Z,23.14
2018-06-29T09:21:22.471Z,23.29
2018-06-29T09:23:50.783Z,23.33
2018-06-29T09:26:19.146Z,23.45
2018-06-29T09:28:47.502Z,23.35
2018-06-29T09:31:15.803Z,23.45
2018-06-29T09:33:44.056Z,23.68
2018-06-29T09:36:12.331Z,23.89
2018-06-29T09:38:40.590Z,23.85
2018-06-29T09:41:09.202Z,23.57
2018-06-29T09:43:37.482Z,23.73
2018-06-29T09:46:05.879Z,23.81
2018-06-29T09:48:34.115Z,23.74
2018-06-29T09:51:02.414Z,23.61
2018-06-29T09:53:30.742Z,23.87
2018-06-29T09:55:59.030Z,23.97
2018-06-29T09:58:27.891Z,23.88
2018-06-29T10:00:56.278Z,23.79
2018-06-29T10:03:24.854Z,24.22
2018-06-29T10:05:53.249Z,24.17
2018-06-29T10:08:21.558Z,24.25
2018-06-29T10:10:49.878Z,24.29
2018-06-29T10:13:18.335Z,24.25
2018-06-29T10:15:46.590Z,24.32
2018-06-29T10:18:14.898Z,24.48
2018-06-29T10:20:43.263Z,24.33
2018-06-29T10:23:11.551Z,24.09
2018-06-29T10:25:39.809Z,24.33
2018-06-29T10:28:08.263Z,24.63
2018-06-29T10:30:36.563Z,24.30
2018-06-29T10:33:04.859Z,24.62
2018-06-29T10:35:33.108Z,24.63
2018-06-29T10:38:01.392Z,24.66
2018-06-29T10:40:29.674Z,24.39
2018-06-29T10:42:57.947Z,24.49
2018-06-29T10:45:26.194Z,24.54
2018-06-29T10:47:55.534Z,24.54
2018-06-29T10:50:23.788Z,24.76
2018-06-29T10:52:52.115Z,24.60
2018-06-29T10:55:20.353Z,25.04
2018-06-29T10:57:48.629Z,25.07
2018-06-29T11:00:16.906Z,25.49
2018-06-29T11:02:45.178Z,25.22
2018-06-29T11:05:13.486Z,25.15
2018-06-29T11:07:41.781Z,24.99
2018-06-29T11:10:10.046Z,25.37
2018-06-29T11:12:38.331Z,25.45
2018-06-29T11:15:06.586Z,25.58
2018-06-29T11:17:34.890Z,25.52
2018-06-29T11:20:04.632Z,25.51
2018-06-29T11:22:33.281Z,25.71
2018-06-29T11:25:01.542Z,25.77
2018-06-29T11:27:29.820Z,25.88
2018-06-29T11:29:58.466Z,25.74
2018-06-29T11:32:26.744Z,25.40
2018-06-29T11:34:55.064Z,25.52
2018-06-29T11:37:24.565Z,25.67
2018-06-29T11:39:53.170Z,25.69
2018-06-29T11:42:23.619Z,26.11
2018-06-29T11:44:52.746Z,25.96
2018-06-29T11:47:21.778Z,25.57
2018-06-29T11:49:51.162Z,25.79
2018-06-29T11:52:21.921Z,25.64
2018-06-29T11:54:54.083Z,25.85
2018-06-29T11:57:26.018Z,25.45
2018-06-29T11:59:56.925Z,25.68
2018-06-29T12:02:25.987Z,25.76
2018-06-29T12:04:59.024Z,25.45
2018-06-29T12:07:27.414Z,25.86
2018-06-29T12:09:56.173Z,25.83
2018-06-29T12:12:24.513Z,26.07
2018-06-29T12:14:52.973Z,26.22
2018-06-29T12:17:21.222Z,26.15
2018-06-29T12:19:49.486Z,26.66
2018-06-29T12:22:17.718Z,25.99
2018-06-29T12:24:46.074Z,26.24
2018-06-29T12:27:14.345Z,26.61
2018-06-29T12:29:42.667Z,26.36
2018-06-29T12:32:10.910Z,25.84
2018-06-29T12:34:39.198Z,25.91
2018-06-29T12:37:07.459Z,25.89
2018-06-29T12:39:35.748Z,26.15
2018-06-29T12:42:04.042Z,26.08
2018-06-29T12:44:32.330Z,26.32
2018-06-29T12:47:00.621Z,26.59
2018-06-29T12:49:28.898Z,26.55
2018-06-29T12:51:57.403Z,26.67
2018-06-29T12:54:25.708Z,26.58
2018-06-29T12:56:54.170Z,26.07
2018-06-29T12:59:22.461Z,26.55
2018-06-29T13:01:50.706Z,26.45
2018-06-29T13:04:19.060Z,26.62
2018-06-29T13:06:47.370Z,26.60
2018-06-29T13:09:15.731Z,26.74
2018-06-29T13:11:43.994Z,26.95
2018-06-29T13:14:12.499Z,26.75
2018-06-29T13:16:40.730Z,26.89
2018-06-29T13:19:09.194Z,26.97
2018-06-29T13:21:37.622Z,26.59
2018-06-29T13:24:06.160Z,26.81
2018-06-29T13:26:34.452Z,26.67
2018-06-29T13:29:02.783Z,26.93
2018-06-29T13:31:31.094Z,26.53
2018-06-29T13:33:59.476Z,27.05
2018-06-29T13:36:27.827Z,27.36
2018-06-29T13:38:56.151Z,27.24
2018-06-29T13:41:24.426Z,27.21
2018-06-29T13:43:52.746Z,26.98
2018-06-29T13:46:21.102Z,27.19
2018-06-29T13:48:49.406Z,26.90
2018-06-29T13:51:17.639Z,27.23
2018-06-29T13:53:45.926Z,27.39
2018-06-29T13:56:14.759Z,27.48
2018-06-29T13:58:43.034Z,27.36
2018-06-29T14:01:11.374Z,27.06
2018-06-29T14:03:39.651Z,27.09
2018-06-29T14:06:08.258Z,26.86
2018-06-29T14:08:36.576Z,26.81
2018-06-29T14:11:04.871Z,27.23
2018-06-29T14:13:33.115Z,26.57
2018-06-29T14:16:01.463Z,26.58
2018-06-29T14:18:29.799Z,26.82
2018-06-29T14:20:58.927Z,26.97
2018-06-29T14:23:27.234Z,27.15
2018-06-29T14:25:55.514Z,27.33
2018-06-29T14:28:23.754Z,27.30
2018-06-29T14:30:53.132Z,27.07
2018-06-29T14:33:21.432Z,27.21
2018-06-29T14:35:49.979Z,27.39
2018-06-29T14:38:18.242Z,27.48
2018-06-29T14:40:46.642Z,27.35
2018-06-29T14:43:14.886Z,27.34
2018-06-29T14:45:43.159Z,27.24
2018-06-29T14:48:11.428Z,26.99
2018-06-29T14:50:40.026Z,27.21
2018-06-29T14:53:08.376Z,27.45
2018-06-29T14:55:36.751Z,27.43
2018-06-29T14:58:05.058Z,27.41
2018-06-29T15:00:33.611Z,27.45
2018-06-29T15:03:02.134Z,27.30
2018-06-29T15:05:30.383Z,27.38
2018-06-29T15:07:58.669Z,27.33
2018-06-29T15:10:26.955Z,27.46
2018-06-29T15:12:55.199Z,27.37
2018-06-29T15:15:23.462Z,27.45
2018-06-29T15:17:51.737Z,27.18
2018-06-29T15:20:20.015Z,26.92
2018-06-29T15:22:48.283Z,26.98
2018-06-29T15:25:16.952Z,27.08
2018-06-29T15:27:45.127Z,26.93
2018-06-29T15:30:13.440Z,27.13
2018-06-29T15:32:41.694Z,27.24
2018-06-29T15:35:09.975Z,27.31
2018-06-29T15:37:38.231Z,27.26
2018-06-29T15:40:06.556Z,27.29
2018-06-29T15:42:36.812Z,27.15
2018-06-29T15:45:05.431Z,26.73
2018-06-29T15:47:33.672Z,26.85
2018-06-29T15:50:02.025Z,26.61
2018-06-29T15:52:30.282Z,27.18
2018-06-29T15:54:58.603Z,27.16
2018-06-29T15:57:26.883Z,27.26
2018-06-29T15:59:55.126Z,27.22
2018-06-29T16:02:23.796Z,27.14
2018-06-29T16:04:52.394Z,26.85
2018-06-29T16:07:20.682Z,27.26
2018-06-29T16:09:48.930Z,27.04
2018-06-29T16:12:17.236Z,26.86
2018-06-29T16:14:45.495Z,26.83
2018-06-29T16:17:13.806Z,27.01
2018-06-29T16:19:42.098Z,27.02
2018-06-29T16:22:10.430Z,26.99
2018-06-29T16:24:38.674Z,27.23
2018-06-29T16:27:06.972Z,26.77
2018-06-29T16:29:35.471Z,26.95
2018-06-29T16:32:03.758Z,27.03
2018-06-29T16:34:32.111Z,26.97
2018-06-29T16:37:00.406Z,27.34
2018-06-29T16:39:28.671Z,27.19
2018-06-29T16:41:56.954Z,27.26
2018-06-29T16:44:25.690Z,27.15
2018-06-29T16:46:54.010Z,26.73
2018-06-29T16:49:22.282Z,26.99
2018-06-29T16:51:50.576Z,27.09
2018-06-29T16:54:18.830Z,27.16
2018-06-29T16:56:47.291Z,27.38
2018-06-29T16:59:15.535Z,27.34
2018-06-29T17:01:43.821Z,27.24
2018-06-29T17:04:13.805Z,27.42
2018-06-29T17:06:42.094Z,27.41
2018-06-29T17:09:10.603Z,27.49
2018-06-29T17:11:39.111Z,27.47
2018-06-29T17:14:07.547Z,27.30
2018-06-29T17:16:36.102Z,27.01
2018-06-29T17:19:04.571Z,26.94
2018-06-29T17:21:32.850Z,27.09
2018-06-29T17:24:01.341Z,26.97
2018-06-29T17:26:30.003Z,26.61
2018-06-29T17:28:58.532Z,26.91
2018-06-29T17:31:26.716Z,27.08
2018-06-29T17:33:55.005Z,26.80
2018-06-29T17:36:23.248Z,26.91
2018-06-29T17:38:51.575Z,26.72
2018-06-29T17:41:19.965Z,26.67
2018-06-29T17:43:48.406Z,26.82
2018-06-29T17:46:16.650Z,26.73
2018-06-29T17:48:45.928Z,26.83
2018-06-29T17:51:14.283Z,26.74
2018-06-29T17:53:42.650Z,26.47
2018-06-29T17:56:11.026Z,26.53
2018-06-29T17:58:39.468Z,26.44
2018-06-29T18:01:08.061Z,26.41
2018-06-29T18:03:36.535Z,26.51
2018-06-29T18:06:05.214Z,26.37
2018-06-29T18:08:33.718Z,26.22
2018-06-29T18:11:01.982Z,26.43
2018-06-29T18:16:22.748Z,26.01
2018-06-29T18:18:51.059Z,26.04
2018-06-29T18:21:19.364Z,25.92
2018-06-29T18:23:47.770Z,25.86
2018-06-29T18:26:16.252Z,25.76
2018-06-29T18:28:44.552Z,25.74
2018-06-29T18:31:13.088Z,25.62
2018-06-29T18:33:41.583Z,25.74
2018-06-29T18:36:11.280Z,25.63
2018-06-29T18:38:40.129Z,25.42
2018-06-29T18:41:08.708Z,25.46
2018-06-29T18:43:37.405Z,25.07
2018-06-29T18:46:06.355Z,24.86
2018-06-29T18:48:34.941Z,24.74
2018-06-29T18:51:03.693Z,24.76
2018-06-29T18:53:32.421Z,24.68
2018-06-29T18:56:00.988Z,24.66
2018-06-29T18:58:29.586Z,24.62
2018-06-29T19:00:59.057Z,24.72
2018-06-29T19:03:27.890Z,24.57
2018-06-29T19:05:56.730Z,24.47
2018-06-29T19:08:25.323Z,24.35
2018-06-29T19:10:53.629Z,24.31
2018-06-29T19:13:22.021Z,24.26
2018-06-29T19:15:50.463Z,24.15
2018-06-29T19:18:18.781Z,24.10
2018-06-29T19:20:47.143Z,24.01
2018-06-29T19:23:15.558Z,23.98
2018-06-29T19:25:44.018Z,23.92
2018-06-29T19:28:12.873Z,23.88
2018-06-29T19:30:41.385Z,23.68
2018-06-29T19:33:09.830Z,23.75
2018-06-29T19:35:38.209Z,23.61
2018-06-29T19:38:07.051Z,23.52
2018-06-29T19:40:36.101Z,23.44
2018-06-29T19:43:04.949Z,23.38
2018-06-29T19:45:33.550Z,23.39
2018-06-29T19:48:02.073Z,23.41
2018-06-29T19:50:30.859Z,23.39
2018-06-29T19:52:59.784Z,23.38
2018-06-29T19:55:29.458Z,23.25
2018-06-29T19:57:58.018Z,23.12
2018-06-29T20:00:28.566Z,23.06
2018-06-29T20:02:57.250Z,23.16
2018-06-29T20:05:25.634Z,23.05
2018-06-29T20:07:53.953Z,23.01
2018-06-29T20:10:22.299Z,22.88
2018-06-29T20:12:50.607Z,22.95
2018-06-29T20:15:19.028Z,22.88
2018-06-29T20:17:47.567Z,22.85
2018-06-29T20:20:16.192Z,22.79
2018-06-29T20:22:44.427Z,22.64
2018-06-29T20:25:12.752Z,22.46
2018-06-29T20:27:41.014Z,22.55
2018-06-29T20:30:10.734Z,22.45
2018-06-29T20:32:39.074Z,22.33
2018-06-29T20:35:07.367Z,22.24
2018-06-29T20:37:35.636Z,22.15
2018-06-29T20:40:04.015Z,22.05
2018-06-29T20:42:33.014Z,21.81
2018-06-29T20:45:01.354Z,21.50
2018-06-29T20:47:29.685Z,21.16
2018-06-29T20:49:58.171Z,21.05
2018-06-29T20:52:26.453Z,20.81
2018-06-29T20:54:54.813Z,20.49
2018-06-29T20:57:23.219Z,20.39
2018-06-29T20:59:51.590Z,20.34
2018-06-29T21:02:19.832Z,20.36
2018-06-29T21:04:48.189Z,20.25
2018-06-29T21:07:16.390Z,20.15
2018-06-29T21:09:44.700Z,19.89
2018-06-29T21:12:13.085Z,19.78
2018-06-29T21:14:42.462Z,19.65
2018-06-29T21:17:10.851Z,19.53
2018-06-29T21:19:39.118Z,19.38
2018-06-29T21:22:07.467Z,19.36
2018-06-29T21:24:35.822Z,19.32
2018-06-29T21:27:04.198Z,19.56
2018-06-29T21:29:32.549Z,19.35
2018-06-29T21:32:00.878Z,19.40
2018-06-29T21:34:29.204Z,19.18
2018-06-29T21:36:57.629Z,19.09
2018-06-29T21:39:25.874Z,19.16
2018-06-29T21:41:54.187Z,19.01
2018-06-29T21:44:22.462Z,18.99
2018-06-29T21:46:50.744Z,19.06
2018-06-29T21:49:19.043Z,18.99
2018-06-29T21:51:47.435Z,18.95
2018-06-29T21:54:15.718Z,18.72
2018-06-29T21:56:43.999Z,19.00
2018-06-29T21:59:12.315Z,18.77
2018-06-29T22:01:40.638Z,18.62
2018-06-29T22:04:09.047Z,18.41
2018-06-29T22:06:37.331Z,18.52
2018-06-29T22:09:07.606Z,18.44
2018-06-29T22:11:35.932Z,18.42
2018-06-29T22:14:04.298Z,18.30
2018-06-29T22:16:32.606Z,18.28
2018-06-29T22:19:01.518Z,18.24
2018-06-29T22:21:29.868Z,18.18
2018-06-29T22:23:58.136Z,18.49
2018-06-29T22:26:26.423Z,18.44
2018-06-29T22:28:54.831Z,18.48
2018-06-29T22:31:23.154Z,18.44
2018-06-29T22:33:51.547Z,18.16
2018-06-29T22:36:19.816Z,17.94
2018-06-29T22:38:48.074Z,17.87
2018-06-29T22:41:16.531Z,17.93
2018-06-29T22:43:44.891Z,17.89
2018-06-29T22:46:13.327Z,17.72
2018-06-29T22:48:41.583Z,17.81
2018-06-29T22:51:10.091Z,17.79
2018-06-29T22:53:38.329Z,17.69
2018-06-29T22:56:06.614Z,17.62
2018-06-29T22:58:34.850Z,17.72
2018-06-29T23:01:03.216Z,17.59
2018-06-29T23:03:36.624Z,17.79
2018-06-29T23:06:05.094Z,17.95
2018-06-29T23:08:33.391Z,17.75
2018-06-29T23:11:01.675Z,17.57
2018-06-29T23:13:29.923Z,17.63
2018-06-29T23:15:58.209Z,17.79
2018-06-29T23:18:26.602Z,17.62
2018-06-29T23:20:54.927Z,17.48
2018-06-29T23:23:23.254Z,17.49
2018-06-29T23:25:51.550Z,17.34
2018-06-29T23:28:19.853Z,17.47
2018-06-29T23:30:48.172Z,17.49
2018-06-29T23:33:16.490Z,17.48
2018-06-29T23:35:44.731Z,17.64
2018-06-29T23:38:13.067Z,17.38
2018-06-29T23:40:41.304Z,17.35
2018-06-29T23:43:09.715Z,17.17
2018-06-29T23:45:37.946Z,17.20
2018-06-29T23:48:06.246Z,17.17
2018-06-29T23:50:34.474Z,17.04
2018-06-29T23:53:02.850Z,16.90
2018-06-29T23:55:31.114Z,16.81
2018-06-29T23:57:59.515Z,16.63
